Flight Track Log - Related Links

Times and Time Zones

All times are in EDT time to prevent confusion due to time zone crossing. See the SKQ45 flight status page for this flight to view local times or setup timezone preferences in your user account.

Time Position Orientation Groundspeed Altitude Reporting Facility
EDT Latitude Longitude Course Direction KTS MPH feet Rate Location/Type
Tue 12:02:05 AM 38.7667 -90.3000 72° East 171 197 2,000  Level Gateway (St. Louis) TRACON
Tue 12:03:13 AM 38.8189 -90.2522 35° Northeast 193 222 3,400 930 Climbing Kansas City Center
Tue 12:04:14 AM 38.8614 -90.2075 39° Northeast 195 224 4,000 1,033 Climbing Kansas City Center
Tue 12:05:15 AM 38.9075 -90.1611 38° Northeast 203 234 5,500 1,180 Climbing Kansas City Center
Tue 12:06:16 AM 38.9492 -90.1178 39° Northeast 199 229 6,400 934 Climbing Kansas City Center
Tue 12:07:17 AM 38.9919 -90.0725 39° Northeast 198 228 7,400 934 Climbing Kansas City Center
Tue 12:08:18 AM 39.0344 -90.0286 39° Northeast 197 227 8,300 1,041 Climbing Kansas City Center
Tue 12:09:18 AM 39.0778 -89.9833 39° Northeast 199 229 9,500 1,240 Climbing Kansas City Center
Tue 12:10:19 AM 39.1231 -89.9367 39° Northeast 198 228 10,800 1,180 Climbing Kansas City Center
Tue 12:11:20 AM 39.1692 -89.8897 38° Northeast 197 227 11,900 984 Climbing Kansas City Center
Tue 12:12:21 AM 39.2061 -89.8467 42° Northeast 203 234 12,800 942 Climbing Kansas City Center
Tue 12:13:21 AM 39.2131 -89.7731 83° East 206 237 13,800 942 Climbing Kansas City Center
Tue 12:14:22 AM 39.2233 -89.6997 80° East 207 238 14,700 934 Climbing Kansas City Center
Tue 12:15:23 AM 39.2358 -89.6228 78° East 216 249 15,700 836 Climbing Kansas City Center
Tue 12:16:24 AM 39.2472 -89.5467 79° East 217 250 16,400 744 Climbing Kansas City Center
Tue 12:17:24 AM 39.2603 -89.4681 78° East 222 255 17,200 694 Climbing Kansas City Center
Tue 12:18:25 AM 39.2719 -89.3886 79° East 225 259 17,800 689 Climbing Kansas City Center
Tue 12:19:26 AM 39.2878 -89.2911 78° East 230 265 18,600 590 Climbing Kansas City Center
Tue 12:20:27 AM 39.3011 -89.2075 78° East 235 270 19,000 198 Climbing Kansas City Center
Tue 12:21:27 AM 39.3147 -89.1169 79° East 251 289 19,000  Level Kansas City Center
Tue 12:22:28 AM 39.3292 -89.0214 79° East 265 305 19,000  Level Kansas City Center
Tue 12:23:29 AM 39.3447 -88.9250 78° East 271 312 19,000  Level Kansas City Center
Tue 12:24:29 AM 39.3619 -88.8300 77° East 273 314 19,000  Level Kansas City Center
Tue 12:25:30 AM 39.3750 -88.7325 80° East 275 316 19,000  Level Kansas City Center
Tue 12:26:31 AM 39.3892 -88.6367 79° East 274 315 19,000  Level Kansas City Center
Tue 12:27:32 AM 39.4036 -88.5311 80° East 272 313 19,000  Level Kansas City Center
Tue 12:28:32 AM 39.4183 -88.4333 79° East 274 315 19,000  Level Kansas City Center
Tue 12:29:33 AM 39.4333 -88.3333 79° East 278 320 19,000  Level Kansas City Center
Tue 12:30:34 AM 39.4481 -88.2353 79° East 277 319 19,000  Level Kansas City Center
Tue 12:31:34 AM 39.4614 -88.1372 80° East 276 318 19,000  Level Kansas City Center
Tue 12:32:35 AM 39.4764 -88.0400 79° East 275 316 19,000  Level Kansas City Center
Tue 12:33:36 AM 39.4892 -87.9436 80° East 274 315 19,000  Level Kansas City Center
Tue 12:34:36 AM 39.5039 -87.8450 79° East 275 316 19,000  Level Kansas City Center
Tue 12:34:57 AM 39.5094 -87.8125 77° East 276 318 19,000  Level Indianapolis Center
Tue 12:35:58 AM 39.5211 -87.7136 81° East 277 319 19,000  Level Indianapolis Center
Tue 12:36:58 AM 39.5353 -87.6156 79° East 276 318 19,000  Level Indianapolis Center
Tue 12:37:59 AM 39.5500 -87.5181 79° East 275 316 19,000  Level Indianapolis Center
Tue 12:38:59 AM 39.5633 -87.4203 80° East 275 316 19,000  Level Indianapolis Center
Tue 12:40:00 AM 39.5772 -87.3242 79° East 272 313 19,000  Level Indianapolis Center
Tue 12:41:00 AM 39.5894 -87.2253 81° East 275 316 19,000  Level Indianapolis Center
Tue 12:42:01 AM 39.6036 -87.1283 79° East 273 314 19,000  Level Indianapolis Center
Tue 12:43:01 AM 39.6167 -87.0311 80° East 271 312 19,000  Level Indianapolis Center
Tue 12:44:02 AM 39.6300 -86.9325 80° East 274 315 19,000  Level Indianapolis Center
Tue 12:45:02 AM 39.6431 -86.8331 80° East 276 318 19,000  Level Indianapolis Center
Tue 12:46:03 AM 39.6561 -86.7342 80° East 277 319 19,000  Level Indianapolis Center
Tue 12:47:03 AM 39.6692 -86.6361 80° East 275 316 19,000  Level Indianapolis Center
Tue 12:48:04 AM 39.6819 -86.5375 80° East 276 318 19,000  Level Indianapolis Center
Tue 12:49:04 AM 39.6953 -86.4389 80° East 277 319 19,000  Level Indianapolis Center
Tue 12:50:04 AM 39.7067 -86.3428 81° East 273 314 19,000  Level Indianapolis Center
Tue 12:51:05 AM 39.7206 -86.2364 80° East 273 314 19,000  Level Indianapolis Center
Tue 12:52:05 AM 39.7317 -86.1508 80° East 277 319 19,000  Level Indianapolis Center
Tue 12:53:06 AM 39.7442 -86.0539 80° East 273 314 19,000  Level Indianapolis Center
Tue 12:54:06 AM 39.7561 -85.9550 81° East 275 316 19,000  Level Indianapolis Center
Tue 12:55:06 AM 39.7689 -85.8564 80° East 276 318 19,000  Level Indianapolis Center
Tue 12:56:07 AM 39.7808 -85.7572 81° East 276 318 19,000  Level Indianapolis Center
Tue 12:57:07 AM 39.7925 -85.6583 81° East 276 318 19,000  Level Indianapolis Center
Tue 12:58:08 AM 39.8056 -85.5589 80° East 277 319 19,000  Level Indianapolis Center
Tue 12:59:08 AM 39.8172 -85.4606 81° East 275 316 19,000  Level Indianapolis Center
Tue 01:00:08 AM 39.8300 -85.3619 80° East 274 315 19,000  Level Indianapolis Center
Tue 01:01:09 AM 39.8419 -85.2628 81° East 275 316 19,000  Level Indianapolis Center
Tue 01:02:09 AM 39.8522 -85.1631 82° East 275 316 19,000  Level Indianapolis Center
Tue 01:03:09 AM 39.8650 -85.0639 80° East 276 318 19,000  Level Indianapolis Center
Tue 01:04:10 AM 39.8758 -84.9653 82° East 273 314 19,000  Level Indianapolis Center
Tue 01:05:10 AM 39.8889 -84.8553 81° East 274 315 19,000  Level Indianapolis Center
Tue 01:06:10 AM 39.8997 -84.7550 82° East 277 319 19,000 -496 Level Indianapolis Center
Tue 01:07:11 AM 39.9117 -84.6539 81° East 280 322 18,000 -1,140 Descending Indianapolis Center
Tue 01:08:11 AM 39.9233 -84.5433 82° East 304 350 16,700 -1,450 Descending Indianapolis Center
Tue 01:09:11 AM 39.9358 -84.4336 82° East 305 351 15,100 -1,519 Descending Indianapolis Center
Tue 01:09:30 AM 39.9403 -84.4050 79° East 304 350 14,700 -1,180 Descending Indianapolis Center
Tue 01:10:12 AM 39.9467 -84.3458 82° East 295 339 13,900 -1,377 Descending Indianapolis Center
Tue 01:10:31 AM 39.9506 -84.3003 84° East 285 328 13,300 -1,400 Descending Indianapolis Center
Tue 01:11:12 AM 39.9578 -84.2433 81° East 284 327 12,500 -1,475 Descending Indianapolis Center
Tue 01:11:32 AM 39.9628 -84.1983 82° East 284 327 11,800 -1,475 Descending Indianapolis Center
Tue 01:12:13 AM 39.9686 -84.1408 82° East 282 325 11,000 -1,500 Descending Indianapolis Center
Tue 01:12:32 AM 39.9731 -84.0964 83° East 281 323 10,300 -1,500 Descending Indianapolis Center
Tue 01:13:13 AM 39.9794 -84.0389 82° East 280 322 9,500 -1,574 Descending Indianapolis Center
Tue 01:13:33 AM 39.9847 -83.9969 81° East 276 318 8,700 -1,500 Descending Indianapolis Center
Tue 01:14:13 AM 39.9906 -83.9417 82° East 273 314 8,000 -1,300 Descending Indianapolis Center
Tue 01:14:33 AM 39.9942 -83.9031 83° East 262 302 7,400 -1,500 Descending Indianapolis Center
Tue 01:15:13 AM 40.0000 -83.8469 82° East 265 305 6,500 -1,672 Descending Indianapolis Center
Tue 01:15:34 AM 40.0039 -83.8033 83° East 258 297 5,700 -1,377 Descending Indianapolis Center
Tue 01:16:14 AM 40.0103 -83.7536 80° East 260 299 5,100 -590 Descending Indianapolis Center
Tue 01:16:35 AM 40.0147 -83.7122 82° East 256 295 5,100  Level Indianapolis Center
Tue 01:17:14 AM 40.0197 -83.6617 83° East 256 295 5,100  Level Indianapolis Center
Tue 01:17:35 AM 40.0233 -83.6233 83° East 241 277 5,100  Level Indianapolis Center
Tue 01:18:14 AM 40.0319 -83.5761 77° East 246 283 5,100 -393 Level Indianapolis Center
Tue 01:18:36 AM 40.0442 -83.5414 65° Northeast 253 291 4,700 -984 Descending Indianapolis Center
Tue 01:19:15 AM 40.0600 -83.4903 68° East 250 288 4,100 -848 Descending Indianapolis Center
Tue 01:20:15 AM 40.0661 -83.3978 85° East 252 290 3,300 -450 Descending Indianapolis Center
Tue 01:21:15 AM 40.0675 -83.3119 89° East 252 290 3,200 -100 Descending Indianapolis Center
Tue 01:23:00 AM 40.0606 -83.1529 78° East  Level FlightAware Approximate
Tue 01:30:00 AM 40.0667 -83.0667 90° East  Level FlightAware Approximate

Login

Don't have an account? Register now (free) for customized features, flight alerts, and more!